sensor_id;sensor_type;location;lat;lon;timestamp;P1;durP1;ratioP1;P2;durP2;ratioP2
55758;SDS011;41678;52.126;20.664;2024-03-07T00:03:48;18.83;;;9.13;;
55758;SDS011;41678;52.126;20.664;2024-03-07T00:09:09;24.33;;;8.75;;
55758;SDS011;41678;52.126;20.664;2024-03-07T00:14:29;18.63;;;9.13;;
55758;SDS011;41678;52.126;20.664;2024-03-07T00:19:49;18.75;;;9.00;;
55758;SDS011;41678;52.126;20.664;2024-03-07T00:25:09;25.80;;;9.00;;
55758;SDS011;41678;52.126;20.664;2024-03-07T00:30:30;28.13;;;9.45;;
55758;SDS011;41678;52.126;20.664;2024-03-07T00:35:49;19.52;;;8.20;;
55758;SDS011;41678;52.126;20.664;2024-03-07T00:41:09;19.55;;;8.48;;
55758;SDS011;41678;52.126;20.664;2024-03-07T00:46:29;20.30;;;8.82;;
55758;SDS011;41678;52.126;20.664;2024-03-07T00:51:48;22.35;;;9.68;;
55758;SDS011;41678;52.126;20.664;2024-03-07T00:57:08;19.60;;;8.50;;
55758;SDS011;41678;52.126;20.664;2024-03-07T01:02:28;19.90;;;8.63;;
55758;SDS011;41678;52.126;20.664;2024-03-07T01:07:49;18.35;;;8.70;;
55758;SDS011;41678;52.126;20.664;2024-03-07T01:13:08;19.77;;;8.68;;
55758;SDS011;41678;52.126;20.664;2024-03-07T01:18:38;19.20;;;9.07;;
55758;SDS011;41678;52.126;20.664;2024-03-07T01:23:58;22.05;;;9.27;;
55758;SDS011;41678;52.126;20.664;2024-03-07T01:29:19;18.23;;;8.55;;
55758;SDS011;41678;52.126;20.664;2024-03-07T01:34:40;22.27;;;10.00;;
55758;SDS011;41678;52.126;20.664;2024-03-07T01:39:59;25.13;;;9.65;;
55758;SDS011;41678;52.126;20.664;2024-03-07T01:45:18;19.40;;;9.23;;
55758;SDS011;41678;52.126;20.664;2024-03-07T01:50:38;19.67;;;9.30;;
55758;SDS011;41678;52.126;20.664;2024-03-07T01:55:58;23.92;;;9.73;;
55758;SDS011;41678;52.126;20.664;2024-03-07T02:01:19;26.70;;;10.53;;
55758;SDS011;41678;52.126;20.664;2024-03-07T02:06:38;21.70;;;9.27;;
55758;SDS011;41678;52.126;20.664;2024-03-07T02:11:58;23.42;;;9.50;;
55758;SDS011;41678;52.126;20.664;2024-03-07T02:17:18;19.52;;;8.20;;
55758;SDS011;41678;52.126;20.664;2024-03-07T02:22:39;22.50;;;9.17;;
55758;SDS011;41678;52.126;20.664;2024-03-07T02:27:59;25.55;;;9.27;;
55758;SDS011;41678;52.126;20.664;2024-03-07T02:33:18;17.83;;;8.55;;
55758;SDS011;41678;52.126;20.664;2024-03-07T02:38:38;22.00;;;9.82;;
55758;SDS011;41678;52.126;20.664;2024-03-07T02:43:58;20.75;;;8.23;;
55758;SDS011;41678;52.126;20.664;2024-03-07T02:49:17;24.20;;;9.10;;
55758;SDS011;41678;52.126;20.664;2024-03-07T02:54:37;20.30;;;9.43;;
55758;SDS011;41678;52.126;20.664;2024-03-07T02:59:57;20.83;;;8.40;;
55758;SDS011;41678;52.126;20.664;2024-03-07T03:05:16;21.73;;;9.23;;
55758;SDS011;41678;52.126;20.664;2024-03-07T03:10:37;27.10;;;9.65;;
55758;SDS011;41678;52.126;20.664;2024-03-07T03:15:57;27.58;;;10.98;;
55758;SDS011;41678;52.126;20.664;2024-03-07T03:21:17;31.42;;;10.10;;
55758;SDS011;41678;52.126;20.664;2024-03-07T03:26:36;27.55;;;10.93;;
55758;SDS011;41678;52.126;20.664;2024-03-07T03:31:55;21.85;;;10.07;;
55758;SDS011;41678;52.126;20.664;2024-03-07T03:37:15;21.55;;;10.15;;
55758;SDS011;41678;52.126;20.664;2024-03-07T03:42:37;24.43;;;9.03;;
55758;SDS011;41678;52.126;20.664;2024-03-07T03:47:57;24.52;;;10.50;;
55758;SDS011;41678;52.126;20.664;2024-03-07T03:53:17;19.48;;;8.85;;
55758;SDS011;41678;52.126;20.664;2024-03-07T03:58:37;18.58;;;9.43;;
55758;SDS011;41678;52.126;20.664;2024-03-07T04:03:58;30.50;;;10.45;;
55758;SDS011;41678;52.126;20.664;2024-03-07T04:09:18;30.40;;;10.68;;
55758;SDS011;41678;52.126;20.664;2024-03-07T04:14:39;28.25;;;10.48;;
55758;SDS011;41678;52.126;20.664;2024-03-07T04:20:00;29.52;;;11.35;;
55758;SDS011;41678;52.126;20.664;2024-03-07T04:25:21;24.25;;;10.05;;
55758;SDS011;41678;52.126;20.664;2024-03-07T04:30:41;23.90;;;10.38;;
55758;SDS011;41678;52.126;20.664;2024-03-07T04:36:02;26.65;;;10.02;;
55758;SDS011;41678;52.126;20.664;2024-03-07T04:41:21;33.78;;;10.38;;
55758;SDS011;41678;52.126;20.664;2024-03-07T04:46:41;28.75;;;10.55;;
55758;SDS011;41678;52.126;20.664;2024-03-07T04:52:02;19.25;;;9.13;;
55758;SDS011;41678;52.126;20.664;2024-03-07T04:57:22;23.60;;;8.98;;
55758;SDS011;41678;52.126;20.664;2024-03-07T05:02:42;26.58;;;8.93;;
55758;SDS011;41678;52.126;20.664;2024-03-07T05:08:03;22.53;;;9.40;;
55758;SDS011;41678;52.126;20.664;2024-03-07T05:13:23;22.17;;;8.82;;
55758;SDS011;41678;52.126;20.664;2024-03-07T05:18:43;26.08;;;9.82;;
55758;SDS011;41678;52.126;20.664;2024-03-07T05:24:03;24.30;;;10.00;;
55758;SDS011;41678;52.126;20.664;2024-03-07T05:29:27;26.33;;;10.77;;
55758;SDS011;41678;52.126;20.664;2024-03-07T05:34:46;23.33;;;10.57;;
55758;SDS011;41678;52.126;20.664;2024-03-07T05:40:06;24.10;;;9.38;;
55758;SDS011;41678;52.126;20.664;2024-03-07T05:45:27;28.97;;;10.17;;
55758;SDS011;41678;52.126;20.664;2024-03-07T05:50:47;25.00;;;10.25;;
55758;SDS011;41678;52.126;20.664;2024-03-07T05:56:07;28.02;;;9.73;;
55758;SDS011;41678;52.126;20.664;2024-03-07T06:01:27;34.67;;;9.82;;
55758;SDS011;41678;52.126;20.664;2024-03-07T06:06:47;21.20;;;9.02;;
55758;SDS011;41678;52.126;20.664;2024-03-07T06:12:07;26.83;;;11.23;;
55758;SDS011;41678;52.126;20.664;2024-03-07T06:17:27;27.02;;;11.27;;
55758;SDS011;41678;52.126;20.664;2024-03-07T06:22:47;27.10;;;11.57;;
55758;SDS011;41678;52.126;20.664;2024-03-07T06:28:07;32.35;;;11.48;;
55758;SDS011;41678;52.126;20.664;2024-03-07T06:33:30;24.70;;;10.57;;
55758;SDS011;41678;52.126;20.664;2024-03-07T06:38:50;29.42;;;10.57;;
55758;SDS011;41678;52.126;20.664;2024-03-07T06:44:10;31.83;;;10.50;;
55758;SDS011;41678;52.126;20.664;2024-03-07T06:49:29;31.02;;;11.88;;
55758;SDS011;41678;52.126;20.664;2024-03-07T06:54:50;22.47;;;9.67;;
55758;SDS011;41678;52.126;20.664;2024-03-07T07:00:14;24.55;;;10.98;;
55758;SDS011;41678;52.126;20.664;2024-03-07T07:05:39;32.50;;;11.18;;
55758;SDS011;41678;52.126;20.664;2024-03-07T07:11:00;22.10;;;9.37;;
55758;SDS011;41678;52.126;20.664;2024-03-07T07:16:19;25.83;;;10.98;;
55758;SDS011;41678;52.126;20.664;2024-03-07T07:21:39;21.67;;;9.40;;
55758;SDS011;41678;52.126;20.664;2024-03-07T07:27:00;25.27;;;10.77;;
55758;SDS011;41678;52.126;20.664;2024-03-07T07:32:20;18.75;;;7.90;;
55758;SDS011;41678;52.126;20.664;2024-03-07T07:37:40;24.90;;;11.27;;
55758;SDS011;41678;52.126;20.664;2024-03-07T07:43:07;28.80;;;10.82;;
55758;SDS011;41678;52.126;20.664;2024-03-07T07:48:27;21.63;;;8.15;;
55758;SDS011;41678;52.126;20.664;2024-03-07T07:53:46;13.82;;;6.57;;
55758;SDS011;41678;52.126;20.664;2024-03-07T07:59:06;26.17;;;8.55;;
55758;SDS011;41678;52.126;20.664;2024-03-07T08:04:28;26.25;;;7.45;;
55758;SDS011;41678;52.126;20.664;2024-03-07T08:09:49;14.18;;;5.93;;
55758;SDS011;41678;52.126;20.664;2024-03-07T08:15:09;12.98;;;6.07;;
55758;SDS011;41678;52.126;20.664;2024-03-07T08:20:33;11.20;;;5.88;;
55758;SDS011;41678;52.126;20.664;2024-03-07T08:25:52;11.63;;;5.38;;
55758;SDS011;41678;52.126;20.664;2024-03-07T08:31:11;13.75;;;5.47;;
55758;SDS011;41678;52.126;20.664;2024-03-07T08:36:31;16.27;;;6.88;;
55758;SDS011;41678;52.126;20.664;2024-03-07T08:41:52;8.90;;;4.28;;
55758;SDS011;41678;52.126;20.664;2024-03-07T08:47:11;11.80;;;5.82;;
55758;SDS011;41678;52.126;20.664;2024-03-07T08:52:31;15.82;;;5.90;;
55758;SDS011;41678;52.126;20.664;2024-03-07T08:57:51;8.77;;;3.83;;
55758;SDS011;41678;52.126;20.664;2024-03-07T09:03:11;11.57;;;5.43;;
55758;SDS011;41678;52.126;20.664;2024-03-07T09:08:31;13.15;;;5.22;;
55758;SDS011;41678;52.126;20.664;2024-03-07T09:13:51;13.98;;;5.78;;
55758;SDS011;41678;52.126;20.664;2024-03-07T09:19:11;16.90;;;6.47;;
55758;SDS011;41678;52.126;20.664;2024-03-07T09:29:53;6.88;;;3.25;;
55758;SDS011;41678;52.126;20.664;2024-03-07T09:35:13;13.30;;;7.43;;
55758;SDS011;41678;52.126;20.664;2024-03-07T09:40:33;14.48;;;4.72;;
55758;SDS011;41678;52.126;20.664;2024-03-07T09:45:53;22.20;;;6.32;;
55758;SDS011;41678;52.126;20.664;2024-03-07T09:51:13;18.58;;;6.97;;
55758;SDS011;41678;52.126;20.664;2024-03-07T09:56:36;13.90;;;4.90;;
55758;SDS011;41678;52.126;20.664;2024-03-07T10:01:56;13.73;;;6.25;;
55758;SDS011;41678;52.126;20.664;2024-03-07T10:12:38;11.10;;;5.82;;
55758;SDS011;41678;52.126;20.664;2024-03-07T10:17:58;17.48;;;3.72;;
55758;SDS011;41678;52.126;20.664;2024-03-07T10:23:19;11.07;;;4.68;;
55758;SDS011;41678;52.126;20.664;2024-03-07T10:28:42;13.63;;;4.80;;
55758;SDS011;41678;52.126;20.664;2024-03-07T10:34:02;9.50;;;3.50;;
55758;SDS011;41678;52.126;20.664;2024-03-07T10:39:23;12.32;;;5.15;;
55758;SDS011;41678;52.126;20.664;2024-03-07T10:44:45;9.70;;;4.00;;
55758;SDS011;41678;52.126;20.664;2024-03-07T10:50:17;10.55;;;3.95;;
55758;SDS011;41678;52.126;20.664;2024-03-07T10:55:59;13.00;;;5.28;;
55758;SDS011;41678;52.126;20.664;2024-03-07T11:01:19;8.38;;;3.63;;
55758;SDS011;41678;52.126;20.664;2024-03-07T11:12:01;16.40;;;5.78;;
55758;SDS011;41678;52.126;20.664;2024-03-07T11:17:26;11.73;;;4.22;;
55758;SDS011;41678;52.126;20.664;2024-03-07T11:22:47;8.15;;;3.40;;
55758;SDS011;41678;52.126;20.664;2024-03-07T11:28:08;10.05;;;4.00;;
55758;SDS011;41678;52.126;20.664;2024-03-07T11:33:28;10.43;;;3.47;;
55758;SDS011;41678;52.126;20.664;2024-03-07T11:38:48;14.60;;;3.38;;
55758;SDS011;41678;52.126;20.664;2024-03-07T11:44:07;11.98;;;3.88;;
55758;SDS011;41678;52.126;20.664;2024-03-07T11:49:27;11.00;;;3.72;;
55758;SDS011;41678;52.126;20.664;2024-03-07T11:54:46;11.38;;;3.72;;
55758;SDS011;41678;52.126;20.664;2024-03-07T12:00:06;10.15;;;4.10;;
55758;SDS011;41678;52.126;20.664;2024-03-07T12:05:33;9.73;;;4.20;;
55758;SDS011;41678;52.126;20.664;2024-03-07T12:10:53;7.88;;;3.22;;
55758;SDS011;41678;52.126;20.664;2024-03-07T12:16:16;11.20;;;3.33;;
55758;SDS011;41678;52.126;20.664;2024-03-07T12:21:39;9.43;;;3.33;;
55758;SDS011;41678;52.126;20.664;2024-03-07T12:27:09;7.68;;;3.17;;
55758;SDS011;41678;52.126;20.664;2024-03-07T12:32:30;9.93;;;3.60;;
55758;SDS011;41678;52.126;20.664;2024-03-07T12:37:51;10.20;;;3.83;;
55758;SDS011;41678;52.126;20.664;2024-03-07T12:43:12;8.87;;;3.43;;
55758;SDS011;41678;52.126;20.664;2024-03-07T12:48:41;10.48;;;4.40;;
55758;SDS011;41678;52.126;20.664;2024-03-07T12:54:00;9.10;;;3.30;;
55758;SDS011;41678;52.126;20.664;2024-03-07T12:59:20;10.65;;;3.75;;
55758;SDS011;41678;52.126;20.664;2024-03-07T13:04:43;9.82;;;4.40;;
55758;SDS011;41678;52.126;20.664;2024-03-07T13:10:04;10.48;;;4.25;;
55758;SDS011;41678;52.126;20.664;2024-03-07T13:15:25;16.27;;;3.67;;
55758;SDS011;41678;52.126;20.664;2024-03-07T13:20:45;15.38;;;4.07;;
55758;SDS011;41678;52.126;20.664;2024-03-07T13:26:04;12.65;;;4.57;;
55758;SDS011;41678;52.126;20.664;2024-03-07T13:31:28;17.25;;;3.63;;
55758;SDS011;41678;52.126;20.664;2024-03-07T13:36:48;13.63;;;3.72;;
55758;SDS011;41678;52.126;20.664;2024-03-07T13:42:08;10.60;;;3.28;;
55758;SDS011;41678;52.126;20.664;2024-03-07T13:52:50;10.50;;;4.22;;
55758;SDS011;41678;52.126;20.664;2024-03-07T14:32:39;14.48;;;4.68;;
55758;SDS011;41678;52.126;20.664;2024-03-07T14:43:33;22.58;;;4.35;;
55758;SDS011;41678;52.126;20.664;2024-03-07T14:48:53;9.65;;;3.70;;
55758;SDS011;41678;52.126;20.664;2024-03-07T14:54:13;11.90;;;3.45;;
55758;SDS011;41678;52.126;20.664;2024-03-07T14:59:32;16.23;;;4.03;;
55758;SDS011;41678;52.126;20.664;2024-03-07T15:04:52;12.10;;;5.13;;
55758;SDS011;41678;52.126;20.664;2024-03-07T15:10:18;21.65;;;4.10;;
55758;SDS011;41678;52.126;20.664;2024-03-07T15:15:43;11.43;;;4.50;;
55758;SDS011;41678;52.126;20.664;2024-03-07T15:21:03;10.23;;;4.85;;
55758;SDS011;41678;52.126;20.664;2024-03-07T15:26:25;8.95;;;4.18;;
55758;SDS011;41678;52.126;20.664;2024-03-07T15:31:45;16.27;;;4.65;;
55758;SDS011;41678;52.126;20.664;2024-03-07T15:37:04;8.57;;;3.70;;
55758;SDS011;41678;52.126;20.664;2024-03-07T15:42:24;8.25;;;3.35;;
55758;SDS011;41678;52.126;20.664;2024-03-07T15:47:57;12.23;;;4.63;;
55758;SDS011;41678;52.126;20.664;2024-03-07T15:53:18;17.42;;;5.38;;
55758;SDS011;41678;52.126;20.664;2024-03-07T15:58:38;13.30;;;3.88;;
55758;SDS011;41678;52.126;20.664;2024-03-07T16:03:58;12.18;;;4.03;;
55758;SDS011;41678;52.126;20.664;2024-03-07T16:09:17;17.08;;;5.22;;
55758;SDS011;41678;52.126;20.664;2024-03-07T16:14:42;14.15;;;5.18;;
55758;SDS011;41678;52.126;20.664;2024-03-07T16:20:01;24.10;;;6.43;;
55758;SDS011;41678;52.126;20.664;2024-03-07T16:25:21;30.15;;;6.32;;
55758;SDS011;41678;52.126;20.664;2024-03-07T16:30:41;31.88;;;7.35;;
55758;SDS011;41678;52.126;20.664;2024-03-07T16:36:03;26.90;;;6.85;;
55758;SDS011;41678;52.126;20.664;2024-03-07T16:41:23;26.40;;;6.72;;
55758;SDS011;41678;52.126;20.664;2024-03-07T16:46:43;27.40;;;8.77;;
55758;SDS011;41678;52.126;20.664;2024-03-07T16:52:03;32.05;;;10.13;;
55758;SDS011;41678;52.126;20.664;2024-03-07T16:57:23;28.23;;;8.27;;
55758;SDS011;41678;52.126;20.664;2024-03-07T17:02:44;28.98;;;9.05;;
55758;SDS011;41678;52.126;20.664;2024-03-07T17:08:04;37.92;;;10.70;;
55758;SDS011;41678;52.126;20.664;2024-03-07T17:13:24;30.48;;;9.55;;
55758;SDS011;41678;52.126;20.664;2024-03-07T17:18:45;39.80;;;9.97;;
55758;SDS011;41678;52.126;20.664;2024-03-07T17:24:04;27.90;;;9.07;;
55758;SDS011;41678;52.126;20.664;2024-03-07T17:29:24;30.08;;;9.77;;
55758;SDS011;41678;52.126;20.664;2024-03-07T17:34:46;34.97;;;12.20;;
55758;SDS011;41678;52.126;20.664;2024-03-07T17:40:07;29.40;;;11.33;;
55758;SDS011;41678;52.126;20.664;2024-03-07T17:45:34;33.38;;;11.20;;
55758;SDS011;41678;52.126;20.664;2024-03-07T17:50:54;46.13;;;14.25;;
55758;SDS011;41678;52.126;20.664;2024-03-07T17:56:13;65.13;;;12.38;;
55758;SDS011;41678;52.126;20.664;2024-03-07T18:01:33;39.75;;;13.20;;
55758;SDS011;41678;52.126;20.664;2024-03-07T18:06:53;52.88;;;16.17;;
55758;SDS011;41678;52.126;20.664;2024-03-07T18:12:12;48.90;;;16.38;;
55758;SDS011;41678;52.126;20.664;2024-03-07T18:17:34;45.80;;;17.00;;
55758;SDS011;41678;52.126;20.664;2024-03-07T18:22:56;93.60;;;35.88;;
55758;SDS011;41678;52.126;20.664;2024-03-07T18:28:17;64.50;;;22.30;;
55758;SDS011;41678;52.126;20.664;2024-03-07T18:33:43;53.88;;;18.60;;
55758;SDS011;41678;52.126;20.664;2024-03-07T18:39:04;37.70;;;12.80;;
55758;SDS011;41678;52.126;20.664;2024-03-07T18:44:33;37.15;;;11.90;;
55758;SDS011;41678;52.126;20.664;2024-03-07T18:49:53;32.53;;;12.63;;
55758;SDS011;41678;52.126;20.664;2024-03-07T18:55:13;42.20;;;13.23;;
55758;SDS011;41678;52.126;20.664;2024-03-07T19:00:51;41.92;;;15.57;;
55758;SDS011;41678;52.126;20.664;2024-03-07T19:06:12;26.27;;;11.38;;
55758;SDS011;41678;52.126;20.664;2024-03-07T19:11:31;45.40;;;12.68;;
55758;SDS011;41678;52.126;20.664;2024-03-07T19:16:53;38.75;;;14.52;;
55758;SDS011;41678;52.126;20.664;2024-03-07T19:22:12;40.20;;;15.23;;
55758;SDS011;41678;52.126;20.664;2024-03-07T19:32:54;61.78;;;21.42;;
55758;SDS011;41678;52.126;20.664;2024-03-07T19:38:14;107.18;;;32.22;;
55758;SDS011;41678;52.126;20.664;2024-03-07T19:43:34;143.75;;;45.17;;
55758;SDS011;41678;52.126;20.664;2024-03-07T19:48:53;137.05;;;44.83;;
55758;SDS011;41678;52.126;20.664;2024-03-07T19:54:13;130.40;;;45.88;;
55758;SDS011;41678;52.126;20.664;2024-03-07T19:59:35;118.35;;;46.03;;
55758;SDS011;41678;52.126;20.664;2024-03-07T20:04:55;149.82;;;43.45;;
55758;SDS011;41678;52.126;20.664;2024-03-07T20:10:17;136.35;;;45.85;;
55758;SDS011;41678;52.126;20.664;2024-03-07T20:15:38;121.82;;;42.95;;
55758;SDS011;41678;52.126;20.664;2024-03-07T20:20:59;122.20;;;40.73;;
55758;SDS011;41678;52.126;20.664;2024-03-07T20:26:21;118.05;;;39.95;;
55758;SDS011;41678;52.126;20.664;2024-03-07T20:31:41;106.82;;;38.20;;
55758;SDS011;41678;52.126;20.664;2024-03-07T20:37:01;107.22;;;39.80;;
55758;SDS011;41678;52.126;20.664;2024-03-07T20:42:22;112.38;;;40.50;;
55758;SDS011;41678;52.126;20.664;2024-03-07T20:47:42;126.43;;;44.42;;
55758;SDS011;41678;52.126;20.664;2024-03-07T20:53:04;139.07;;;42.80;;
55758;SDS011;41678;52.126;20.664;2024-03-07T20:58:24;102.55;;;39.03;;
55758;SDS011;41678;52.126;20.664;2024-03-07T21:03:46;107.28;;;41.97;;
55758;SDS011;41678;52.126;20.664;2024-03-07T21:09:06;133.15;;;46.20;;
55758;SDS011;41678;52.126;20.664;2024-03-07T21:14:28;133.15;;;46.75;;
55758;SDS011;41678;52.126;20.664;2024-03-07T21:19:50;125.03;;;42.67;;
55758;SDS011;41678;52.126;20.664;2024-03-07T21:25:10;97.78;;;36.47;;
55758;SDS011;41678;52.126;20.664;2024-03-07T21:30:36;104.43;;;37.67;;
55758;SDS011;41678;52.126;20.664;2024-03-07T21:35:56;85.03;;;38.03;;
55758;SDS011;41678;52.126;20.664;2024-03-07T21:41:16;128.98;;;40.80;;
55758;SDS011;41678;52.126;20.664;2024-03-07T21:46:39;108.95;;;42.20;;
55758;SDS011;41678;52.126;20.664;2024-03-07T21:51:59;145.95;;;44.55;;
55758;SDS011;41678;52.126;20.664;2024-03-07T21:57:19;93.10;;;40.45;;
55758;SDS011;41678;52.126;20.664;2024-03-07T22:02:39;110.55;;;40.85;;
55758;SDS011;41678;52.126;20.664;2024-03-07T22:07:58;116.85;;;46.45;;
55758;SDS011;41678;52.126;20.664;2024-03-07T22:13:18;115.90;;;44.05;;
55758;SDS011;41678;52.126;20.664;2024-03-07T22:18:39;121.07;;;46.22;;
55758;SDS011;41678;52.126;20.664;2024-03-07T22:23:58;129.48;;;43.80;;
55758;SDS011;41678;52.126;20.664;2024-03-07T22:29:18;107.90;;;41.22;;
55758;SDS011;41678;52.126;20.664;2024-03-07T22:34:40;83.57;;;38.50;;
55758;SDS011;41678;52.126;20.664;2024-03-07T22:39:59;113.93;;;41.22;;
55758;SDS011;41678;52.126;20.664;2024-03-07T22:45:20;88.13;;;33.97;;
55758;SDS011;41678;52.126;20.664;2024-03-07T22:50:39;100.30;;;36.78;;
55758;SDS011;41678;52.126;20.664;2024-03-07T22:55:59;94.07;;;37.17;;
55758;SDS011;41678;52.126;20.664;2024-03-07T23:01:32;94.95;;;35.92;;
55758;SDS011;41678;52.126;20.664;2024-03-07T23:06:51;90.30;;;37.00;;
55758;SDS011;41678;52.126;20.664;2024-03-07T23:12:11;115.88;;;39.45;;
55758;SDS011;41678;52.126;20.664;2024-03-07T23:17:30;86.25;;;37.83;;
55758;SDS011;41678;52.126;20.664;2024-03-07T23:22:51;91.95;;;36.72;;
55758;SDS011;41678;52.126;20.664;2024-03-07T23:28:13;74.82;;;35.08;;
55758;SDS011;41678;52.126;20.664;2024-03-07T23:33:36;88.80;;;34.35;;
55758;SDS011;41678;52.126;20.664;2024-03-07T23:38:57;80.70;;;28.03;;
55758;SDS011;41678;52.126;20.664;2024-03-07T23:44:17;70.88;;;29.40;;
55758;SDS011;41678;52.126;20.664;2024-03-07T23:49:36;59.08;;;27.30;;
55758;SDS011;41678;52.126;20.664;2024-03-07T23:54:57;62.25;;;26.08;;
